createdAt,value
2017-09-03T00:00:25.531Z,78.40
2017-09-03T00:02:53.007Z,77.80
2017-09-03T00:05:20.535Z,77.80
2017-09-03T00:07:48.030Z,78.20
2017-09-03T00:10:15.505Z,78.20
2017-09-03T00:12:42.987Z,77.90
2017-09-03T00:15:10.467Z,78.50
2017-09-03T00:17:37.968Z,77.60
2017-09-03T00:20:05.449Z,78.50
2017-09-03T00:22:32.922Z,77.60
2017-09-03T00:25:00.411Z,77.80
2017-09-03T00:27:27.883Z,77.80
2017-09-03T00:29:55.376Z,77.90
2017-09-03T00:32:23.107Z,77.90
2017-09-03T00:34:50.608Z,78.00
2017-09-03T00:37:18.083Z,77.90
2017-09-03T00:39:45.612Z,78.10
2017-09-03T00:42:13.116Z,78.40
2017-09-03T00:44:40.597Z,79.10
2017-09-03T00:47:08.083Z,78.60
2017-09-03T00:49:35.628Z,78.50
2017-09-03T00:52:03.120Z,78.60
2017-09-03T00:54:30.596Z,78.60
2017-09-03T00:56:58.076Z,78.60
2017-09-03T00:59:25.565Z,78.60
2017-09-03T01:01:53.044Z,78.70
2017-09-03T01:04:20.532Z,78.50
2017-09-03T01:06:48.008Z,78.70
2017-09-03T01:09:15.503Z,78.80
2017-09-03T01:11:42.977Z,78.50
2017-09-03T01:14:10.465Z,78.50
2017-09-03T01:16:37.951Z,78.50
2017-09-03T01:19:05.431Z,78.50
2017-09-03T01:21:32.925Z,78.50
2017-09-03T01:24:00.404Z,78.60
2017-09-03T01:26:27.972Z,78.90
2017-09-03T01:28:55.453Z,78.90
2017-09-03T01:31:22.919Z,78.80
2017-09-03T01:33:50.416Z,79.00
2017-09-03T01:36:17.895Z,79.00
2017-09-03T01:38:45.393Z,79.10
2017-09-03T01:41:12.912Z,79.30
2017-09-03T01:43:40.413Z,79.40
2017-09-03T01:46:07.888Z,79.40
2017-09-03T01:48:35.366Z,79.30
2017-09-03T01:51:02.861Z,79.00
2017-09-03T01:53:30.336Z,79.50
2017-09-03T01:55:57.832Z,79.40
2017-09-03T01:58:25.308Z,79.80
2017-09-03T02:00:52.799Z,79.90
2017-09-03T02:03:20.284Z,79.80
2017-09-03T02:05:47.760Z,79.90
2017-09-03T02:08:15.255Z,79.90
2017-09-03T02:10:42.732Z,79.80
2017-09-03T02:13:10.229Z,79.70
2017-09-03T02:15:37.799Z,79.80
2017-09-03T02:18:05.291Z,79.80
2017-09-03T02:20:32.783Z,79.90
2017-09-03T02:23:00.264Z,80.10
2017-09-03T02:25:27.753Z,79.90
2017-09-03T02:27:55.245Z,79.80
2017-09-03T02:30:22.742Z,79.70
2017-09-03T02:32:50.232Z,79.10
2017-09-03T02:35:17.715Z,79.10
2017-09-03T02:37:45.206Z,79.30
2017-09-03T02:40:12.693Z,79.10
2017-09-03T02:42:40.250Z,79.00
2017-09-03T02:45:08.523Z,79.10
2017-09-03T02:47:36.035Z,79.10
2017-09-03T02:50:03.528Z,79.10
2017-09-03T02:52:31.108Z,78.90
2017-09-03T02:54:58.612Z,79.80
2017-09-03T02:57:26.094Z,79.10
2017-09-03T02:59:53.587Z,79.30
2017-09-03T03:02:21.097Z,79.30
2017-09-03T03:04:48.599Z,79.40
2017-09-03T03:07:16.082Z,79.50
2017-09-03T03:09:43.564Z,79.40
2017-09-03T03:12:11.056Z,79.50
2017-09-03T03:14:38.536Z,79.70
2017-09-03T03:17:06.044Z,79.80
2017-09-03T03:19:33.541Z,79.50
2017-09-03T03:22:01.047Z,79.70
2017-09-03T03:24:28.519Z,79.60
2017-09-03T03:26:56.000Z,79.70
2017-09-03T03:29:23.566Z,79.50
2017-09-03T03:31:51.043Z,79.60
2017-09-03T03:34:18.532Z,79.90
2017-09-03T03:36:46.016Z,79.40
2017-09-03T03:39:13.519Z,79.40
2017-09-03T03:41:41.072Z,79.30
2017-09-03T03:44:08.547Z,79.30
2017-09-03T03:46:36.043Z,79.40
2017-09-03T03:49:03.520Z,79.50
2017-09-03T03:51:31.012Z,79.50
2017-09-03T03:53:58.557Z,79.20
2017-09-03T03:56:26.060Z,79.10
2017-09-03T03:58:53.548Z,79.00
2017-09-03T04:01:21.028Z,79.20
2017-09-03T04:03:48.523Z,79.30
2017-09-03T04:06:16.054Z,79.40
2017-09-03T04:08:43.545Z,79.20
2017-09-03T04:11:11.028Z,79.00
2017-09-03T04:13:38.552Z,79.00
2017-09-03T04:16:06.031Z,79.20
2017-09-03T04:18:33.515Z,79.20
2017-09-03T04:21:01.104Z,79.20
2017-09-03T04:23:28.664Z,79.20
2017-09-03T04:25:56.157Z,79.50
2017-09-03T04:28:23.646Z,79.60
2017-09-03T04:30:51.343Z,79.50
2017-09-03T04:33:18.825Z,79.40
2017-09-03T04:35:46.299Z,79.50
2017-09-03T04:38:13.828Z,79.40
2017-09-03T04:40:41.301Z,79.30
2017-09-03T04:43:08.800Z,79.10
2017-09-03T04:45:36.279Z,78.90
2017-09-03T04:48:03.792Z,78.70
2017-09-03T04:50:31.315Z,78.80
2017-09-03T04:52:58.795Z,78.70
2017-09-03T04:55:26.308Z,78.60
2017-09-03T04:57:53.783Z,78.50
2017-09-03T05:00:21.281Z,78.80
2017-09-03T05:09:47.812Z,78.70
2017-09-03T05:12:15.312Z,79.00
2017-09-03T05:14:42.784Z,79.00
2017-09-03T05:17:10.301Z,79.00
2017-09-03T05:19:37.799Z,79.40
2017-09-03T05:22:05.278Z,79.30
2017-09-03T05:24:32.772Z,78.90
2017-09-03T05:27:00.252Z,78.80
2017-09-03T05:29:27.748Z,78.40
2017-09-03T05:31:55.253Z,78.20
2017-09-03T05:34:22.750Z,78.30
2017-09-03T05:36:50.252Z,78.40
2017-09-03T05:39:17.770Z,78.40
2017-09-03T05:41:45.327Z,78.40
2017-09-03T05:44:12.811Z,78.30
2017-09-03T05:46:40.309Z,78.30
2017-09-03T05:49:07.812Z,78.20
2017-09-03T05:51:35.307Z,78.10
2017-09-03T05:54:02.799Z,78.00
2017-09-03T05:56:30.296Z,78.20
2017-09-03T05:58:57.803Z,78.10
2017-09-03T06:01:25.275Z,78.20
2017-09-03T06:03:52.773Z,78.00
2017-09-03T06:06:20.264Z,78.10
2017-09-03T06:08:47.839Z,77.80
2017-09-03T06:11:15.403Z,77.90
2017-09-03T06:13:42.890Z,77.90
2017-09-03T06:16:10.401Z,78.00
2017-09-03T06:18:37.980Z,77.60
2017-09-03T06:21:05.455Z,77.70
2017-09-03T06:23:32.956Z,77.80
2017-09-03T06:26:00.427Z,77.70
2017-09-03T06:28:27.924Z,77.90
2017-09-03T06:30:55.412Z,77.80
2017-09-03T06:33:22.921Z,77.40
2017-09-03T06:35:50.483Z,77.30
2017-09-03T06:38:17.987Z,77.10
2017-09-03T06:40:45.481Z,77.10
2017-09-03T06:43:13.069Z,76.90
2017-09-03T06:45:40.569Z,76.60
2017-09-03T06:48:08.054Z,76.40
2017-09-03T06:50:35.570Z,76.30
2017-09-03T06:53:03.042Z,76.40
2017-09-03T06:55:30.519Z,76.20
2017-09-03T06:57:58.019Z,76.10
2017-09-03T07:00:25.498Z,75.90
2017-09-03T07:02:52.990Z,75.70
2017-09-03T07:05:20.477Z,76.10
2017-09-03T07:07:48.157Z,76.10
2017-09-03T07:10:15.632Z,75.90
2017-09-03T07:12:43.116Z,75.10
2017-09-03T07:15:10.608Z,75.20
2017-09-03T07:17:38.083Z,75.00
2017-09-03T07:20:05.579Z,73.90
2017-09-03T07:22:33.055Z,74.50
2017-09-03T07:25:00.559Z,74.40
2017-09-03T07:27:28.052Z,74.10
2017-09-03T07:29:55.535Z,74.20
2017-09-03T07:32:23.028Z,73.80
2017-09-03T07:34:50.507Z,73.10
2017-09-03T07:37:17.999Z,73.50
2017-09-03T07:39:46.058Z,73.00
2017-09-03T07:42:13.563Z,71.80
2017-09-03T07:44:41.040Z,71.60
2017-09-03T07:47:08.512Z,72.00
2017-09-03T07:49:36.024Z,71.70
2017-09-03T07:52:03.500Z,71.00
2017-09-03T07:54:30.989Z,70.80
2017-09-03T07:56:58.476Z,70.40
2017-09-03T07:59:27.020Z,69.90
2017-09-03T08:01:54.495Z,69.80
2017-09-03T08:04:21.971Z,69.80
2017-09-03T08:06:49.504Z,69.60
2017-09-03T08:09:16.992Z,69.50
2017-09-03T08:11:44.487Z,69.20
2017-09-03T08:14:11.965Z,68.90
2017-09-03T08:16:39.505Z,68.20
2017-09-03T08:19:06.972Z,68.20
2017-09-03T08:21:34.460Z,67.30
2017-09-03T08:24:01.955Z,67.20
2017-09-03T08:26:29.440Z,67.10
2017-09-03T08:28:56.928Z,66.90
2017-09-03T08:31:24.476Z,66.90
2017-09-03T08:33:52.140Z,66.20
2017-09-03T08:36:19.619Z,66.00
2017-09-03T08:38:47.103Z,65.60
2017-09-03T08:41:14.604Z,65.40
2017-09-03T08:43:42.082Z,65.50
2017-09-03T08:46:09.575Z,65.50
2017-09-03T08:48:37.046Z,64.80
2017-09-03T08:51:04.559Z,64.30
2017-09-03T08:53:32.142Z,64.30
2017-09-03T08:55:59.626Z,63.60
2017-09-03T08:58:27.127Z,63.50
2017-09-03T09:00:54.603Z,63.90
2017-09-03T09:03:22.103Z,63.30
2017-09-03T09:05:49.571Z,63.30
2017-09-03T09:08:17.108Z,63.10
2017-09-03T09:10:44.580Z,62.70
2017-09-03T09:13:12.056Z,62.40
2017-09-03T09:15:39.548Z,62.10
2017-09-03T09:18:07.092Z,62.00
2017-09-03T09:20:34.606Z,61.60
2017-09-03T09:23:02.092Z,61.30
2017-09-03T09:25:29.633Z,61.20
2017-09-03T09:27:57.128Z,60.20
2017-09-03T09:30:25.444Z,59.80
2017-09-03T09:32:52.939Z,59.70
2017-09-03T09:35:20.433Z,58.30
2017-09-03T09:37:47.980Z,58.20
2017-09-03T09:40:15.459Z,58.30
2017-09-03T09:42:43.000Z,59.20
2017-09-03T09:45:10.477Z,59.20
2017-09-03T09:47:37.970Z,59.00
2017-09-03T09:50:05.472Z,58.90
2017-09-03T09:52:32.966Z,59.00
2017-09-03T09:55:00.456Z,59.40
2017-09-03T09:57:27.944Z,58.00
2017-09-03T09:59:55.484Z,57.70
2017-09-03T10:02:23.039Z,57.70
2017-09-03T10:04:50.547Z,57.50
2017-09-03T10:07:18.028Z,56.10
2017-09-03T10:09:45.553Z,56.00
2017-09-03T10:12:13.040Z,55.80
2017-09-03T10:14:40.525Z,55.90
2017-09-03T10:17:08.057Z,55.20
2017-09-03T10:19:35.560Z,54.30
2017-09-03T10:22:03.055Z,52.50
2017-09-03T10:24:30.533Z,53.30
2017-09-03T10:26:58.016Z,52.30
2017-09-03T10:29:25.518Z,51.10
2017-09-03T10:31:53.007Z,50.70
2017-09-03T10:34:20.501Z,50.30
2017-09-03T10:36:47.980Z,49.20
2017-09-03T10:39:15.554Z,49.00
2017-09-03T10:41:43.032Z,49.00
2017-09-03T10:44:10.503Z,47.50
2017-09-03T10:46:38.005Z,47.00
2017-09-03T10:49:05.589Z,44.30
2017-09-03T10:51:33.078Z,45.70
2017-09-03T10:54:00.548Z,45.50
2017-09-03T10:56:28.063Z,44.30
2017-09-03T10:58:55.621Z,44.60
2017-09-03T11:01:23.107Z,45.30
2017-09-03T11:03:50.608Z,44.70
2017-09-03T11:06:18.116Z,45.20
2017-09-03T11:08:45.616Z,44.40
2017-09-03T11:11:13.088Z,44.80
2017-09-03T11:13:40.601Z,44.30
2017-09-03T11:16:08.083Z,44.60
2017-09-03T11:18:35.562Z,43.60
2017-09-03T11:21:03.044Z,43.00
2017-09-03T11:23:30.524Z,43.40
2017-09-03T11:25:58.021Z,43.30
2017-09-03T11:28:25.499Z,42.90
2017-09-03T11:30:53.035Z,43.20
2017-09-03T11:33:20.512Z,42.20
2017-09-03T11:35:48.199Z,42.20
2017-09-03T11:38:15.706Z,41.90
2017-09-03T11:40:43.180Z,42.00
2017-09-03T11:43:10.667Z,41.80
2017-09-03T11:45:38.140Z,42.10
2017-09-03T11:48:05.628Z,41.90
2017-09-03T11:50:33.100Z,41.50
2017-09-03T11:53:00.639Z,41.40
2017-09-03T11:55:28.111Z,41.30
2017-09-03T11:57:55.601Z,41.10
2017-09-03T12:00:23.109Z,40.40
2017-09-03T12:02:50.585Z,40.70
2017-09-03T12:05:18.071Z,40.10
2017-09-03T12:07:45.548Z,40.20
2017-09-03T12:10:13.058Z,39.30
2017-09-03T12:12:40.533Z,38.60
2017-09-03T12:15:08.004Z,38.30
2017-09-03T12:17:35.500Z,39.00
2017-09-03T12:20:02.999Z,38.80
2017-09-03T12:22:30.496Z,39.40
2017-09-03T12:24:57.971Z,39.10
2017-09-03T12:27:25.488Z,39.50
2017-09-03T12:29:52.964Z,38.30
2017-09-03T12:32:20.452Z,38.70
2017-09-03T12:34:47.948Z,37.10
2017-09-03T12:37:15.430Z,36.90
2017-09-03T12:39:42.937Z,36.70
2017-09-03T12:42:10.406Z,36.70
2017-09-03T12:44:37.919Z,35.60
2017-09-03T12:47:05.390Z,35.70
2017-09-03T12:49:32.871Z,35.80
2017-09-03T12:52:00.363Z,36.70
2017-09-03T12:54:27.853Z,37.00
2017-09-03T12:56:55.347Z,36.40
2017-09-03T12:59:22.820Z,36.90
2017-09-03T13:01:50.295Z,37.20
2017-09-03T13:04:17.808Z,36.50
2017-09-03T13:06:45.282Z,36.70
2017-09-03T13:09:12.780Z,35.50
2017-09-03T13:11:40.252Z,35.00
2017-09-03T13:14:07.723Z,33.80
2017-09-03T13:16:35.217Z,32.70
2017-09-03T13:19:02.688Z,32.80
2017-09-03T13:21:30.396Z,31.80
2017-09-03T13:23:57.867Z,31.40
2017-09-03T13:26:25.367Z,31.30
2017-09-03T13:28:52.860Z,31.40
2017-09-03T13:31:20.332Z,30.20
2017-09-03T13:33:47.908Z,30.60
2017-09-03T13:36:15.388Z,31.00
2017-09-03T13:38:42.868Z,31.90
2017-09-03T13:41:10.359Z,32.10
2017-09-03T13:43:37.853Z,33.20
2017-09-03T13:46:05.361Z,33.70
2017-09-03T13:48:32.828Z,34.30
2017-09-03T13:51:00.313Z,33.10
2017-09-03T13:53:27.809Z,31.50
2017-09-03T13:55:55.283Z,31.40
2017-09-03T13:58:23.538Z,29.90
2017-09-03T14:00:51.943Z,30.00
2017-09-03T14:03:19.427Z,29.60
2017-09-03T14:05:46.911Z,29.10
2017-09-03T14:08:14.384Z,28.30
2017-09-03T14:10:41.876Z,28.40
2017-09-03T14:13:09.417Z,27.60
2017-09-03T14:15:36.912Z,27.90
2017-09-03T14:18:04.401Z,28.60
2017-09-03T14:20:31.921Z,29.40
2017-09-03T14:22:59.424Z,30.30
2017-09-03T14:25:26.971Z,30.90
2017-09-03T14:27:54.451Z,32.10
2017-09-03T14:30:21.941Z,32.40
2017-09-03T14:32:49.417Z,32.60
2017-09-03T14:35:16.907Z,33.30
2017-09-03T14:37:44.464Z,34.20
2017-09-03T14:40:11.935Z,34.60
2017-09-03T14:42:39.453Z,35.10
2017-09-03T14:45:07.852Z,34.80
2017-09-03T14:47:35.339Z,35.40
2017-09-03T14:50:02.895Z,35.60
2017-09-03T14:52:30.444Z,35.70
2017-09-03T14:54:57.940Z,35.10
2017-09-03T14:57:25.425Z,35.70
2017-09-03T14:59:52.915Z,35.90
2017-09-03T15:02:20.386Z,36.10
2017-09-03T15:04:47.899Z,35.00
2017-09-03T15:07:15.396Z,35.20
2017-09-03T15:09:42.863Z,35.40
2017-09-03T15:12:10.359Z,35.30
2017-09-03T15:14:37.872Z,34.90
2017-09-03T15:17:05.339Z,35.00
2017-09-03T15:19:32.836Z,34.50
2017-09-03T15:22:00.315Z,35.10
2017-09-03T15:24:27.815Z,35.00
2017-09-03T15:26:55.360Z,35.20
2017-09-03T15:29:22.841Z,35.60
2017-09-03T15:31:50.324Z,35.10
2017-09-03T15:34:17.812Z,35.90
2017-09-03T15:36:45.303Z,36.00
2017-09-03T15:39:12.769Z,36.40
2017-09-03T15:41:40.236Z,36.30
2017-09-03T15:44:07.734Z,36.20
2017-09-03T15:46:35.235Z,36.50
2017-09-03T15:49:02.788Z,36.50
2017-09-03T15:51:30.280Z,36.30
2017-09-03T15:53:57.768Z,37.00
2017-09-03T15:56:25.256Z,37.20
2017-09-03T15:58:52.732Z,37.60
2017-09-03T16:01:20.243Z,37.80
2017-09-03T16:03:47.722Z,37.50
2017-09-03T16:06:15.205Z,37.50
2017-09-03T16:08:42.689Z,38.60
2017-09-03T16:11:10.183Z,37.50
2017-09-03T16:13:38.668Z,37.90
2017-09-03T16:16:06.159Z,37.60
2017-09-03T16:18:33.636Z,37.80
2017-09-03T16:21:01.115Z,38.10
2017-09-03T16:23:28.608Z,37.90
2017-09-03T16:25:56.107Z,38.00
2017-09-03T16:28:23.599Z,37.50
2017-09-03T16:30:51.083Z,38.00
2017-09-03T16:33:18.571Z,37.80
2017-09-03T16:35:46.050Z,39.70
2017-09-03T16:38:13.599Z,40.90
2017-09-03T16:40:41.093Z,42.20
2017-09-03T16:43:08.578Z,42.60
2017-09-03T16:45:36.094Z,42.10
2017-09-03T16:48:03.579Z,42.10
2017-09-03T16:50:31.079Z,42.40
2017-09-03T16:52:58.545Z,41.90
2017-09-03T16:55:26.025Z,41.60
2017-09-03T16:57:53.505Z,41.70
2017-09-03T17:00:21.813Z,41.70
2017-09-03T17:02:49.373Z,41.60
2017-09-03T17:05:16.888Z,42.20
2017-09-03T17:07:44.435Z,41.60
2017-09-03T17:10:11.967Z,41.40
2017-09-03T17:12:39.472Z,40.40
2017-09-03T17:15:06.968Z,41.00
2017-09-03T17:17:34.457Z,40.80
2017-09-03T17:20:02.421Z,41.50
2017-09-03T17:22:29.916Z,40.90
2017-09-03T17:24:57.387Z,40.90
2017-09-03T17:27:24.932Z,40.80
2017-09-03T17:30:03.188Z,41.30
2017-09-03T17:32:41.584Z,40.70
2017-09-03T17:35:12.616Z,40.50
2017-09-03T17:37:43.807Z,40.90
2017-09-03T17:40:11.280Z,40.40
2017-09-03T17:42:39.665Z,39.80
2017-09-03T17:45:07.415Z,39.80
2017-09-03T17:47:34.908Z,39.60
2017-09-03T17:50:02.400Z,40.30
2017-09-03T17:52:30.696Z,40.60
2017-09-03T17:54:58.946Z,40.90
2017-09-03T17:57:26.437Z,40.90
2017-09-03T17:59:53.905Z,41.20
2017-09-03T18:02:21.387Z,41.00
2017-09-03T18:05:04.562Z,40.90
2017-09-03T18:07:32.048Z,41.30
2017-09-03T18:09:59.539Z,41.10
2017-09-03T18:12:27.013Z,41.60
2017-09-03T18:14:54.495Z,41.00
2017-09-03T18:17:22.005Z,41.50
2017-09-03T18:19:52.498Z,41.20
2017-09-03T18:22:20.089Z,42.20
2017-09-03T18:24:47.572Z,42.00
2017-09-03T18:27:15.087Z,42.20
2017-09-03T18:29:46.539Z,41.60
2017-09-03T18:32:14.019Z,41.90
2017-09-03T18:34:41.536Z,41.50
2017-09-03T18:37:09.059Z,41.60
2017-09-03T18:42:41.268Z,41.20
2017-09-03T18:45:08.774Z,41.60
2017-09-03T18:47:36.248Z,41.80
2017-09-03T18:50:08.352Z,42.10
2017-09-03T18:52:40.394Z,42.50
2017-09-03T18:55:07.904Z,42.30
2017-09-03T18:57:41.951Z,42.90
2017-09-03T19:00:10.348Z,42.90
2017-09-03T19:02:47.778Z,42.20
2017-09-03T19:05:15.934Z,42.70
2017-09-03T19:07:43.408Z,42.90
2017-09-03T19:10:10.902Z,43.10
2017-09-03T19:12:38.392Z,43.50
2017-09-03T19:15:05.879Z,44.00
2017-09-03T19:17:33.402Z,44.60
2017-09-03T19:20:00.896Z,45.00
2017-09-03T19:22:28.376Z,45.30
2017-09-03T19:24:56.628Z,45.60
2017-09-03T19:27:24.109Z,45.60
2017-09-03T19:29:51.618Z,46.10
2017-09-03T19:32:19.099Z,46.60
2017-09-03T19:34:46.613Z,47.10
2017-09-03T19:37:16.604Z,47.40
2017-09-03T19:39:44.861Z,48.10
2017-09-03T19:42:12.375Z,48.00
2017-09-03T19:44:39.861Z,48.30
2017-09-03T19:47:07.343Z,49.20
2017-09-03T19:49:35.623Z,48.70
2017-09-03T19:52:03.127Z,48.60
2017-09-03T19:54:30.629Z,49.00
2017-09-03T19:56:58.096Z,48.50
2017-09-03T19:59:25.692Z,48.90
2017-09-03T20:01:53.183Z,49.60
2017-09-03T20:04:20.680Z,50.80
2017-09-03T20:06:48.147Z,51.70
2017-09-03T20:09:15.664Z,52.30
2017-09-03T20:11:43.269Z,52.80
2017-09-03T20:14:10.785Z,53.00
2017-09-03T20:16:38.285Z,54.00
2017-09-03T20:19:06.039Z,54.70
2017-09-03T20:21:33.539Z,55.00
2017-09-03T20:24:01.015Z,55.40
2017-09-03T20:26:28.543Z,55.70
2017-09-03T20:28:56.016Z,56.10
2017-09-03T20:31:23.501Z,56.10
2017-09-03T20:33:50.987Z,56.20
2017-09-03T20:36:18.467Z,56.50
2017-09-03T20:38:45.959Z,56.00
2017-09-03T20:41:13.433Z,56.60
2017-09-03T20:43:40.907Z,57.30
2017-09-03T20:46:08.409Z,57.80
2017-09-03T20:48:35.895Z,58.30
2017-09-03T20:51:03.399Z,58.80
2017-09-03T20:53:31.120Z,58.70
2017-09-03T20:55:58.587Z,59.00
2017-09-03T20:58:26.091Z,59.30
2017-09-03T21:00:53.562Z,59.50
2017-09-03T21:03:21.064Z,59.70
2017-09-03T21:05:48.536Z,60.00
2017-09-03T21:08:16.003Z,60.50
2017-09-03T21:10:43.498Z,60.70
2017-09-03T21:13:10.975Z,60.90
2017-09-03T21:15:38.484Z,61.20
2017-09-03T21:18:05.955Z,61.60
2017-09-03T21:20:33.467Z,61.80
2017-09-03T21:23:00.975Z,61.80
2017-09-03T21:25:28.449Z,61.40
2017-09-03T21:27:56.067Z,61.70
2017-09-03T21:30:23.540Z,61.80
2017-09-03T21:32:51.016Z,61.90
2017-09-03T21:35:18.511Z,61.90
2017-09-03T21:37:46.021Z,61.90
2017-09-03T21:40:13.513Z,61.90
2017-09-03T21:42:40.993Z,62.20
2017-09-03T21:45:08.461Z,62.50
2017-09-03T21:47:35.965Z,62.60
2017-09-03T21:50:03.438Z,62.70
2017-09-03T21:52:30.930Z,62.50
2017-09-03T21:54:58.423Z,62.60
2017-09-03T21:57:25.914Z,62.50
2017-09-03T21:59:53.432Z,62.80
2017-09-03T22:02:20.902Z,62.60
2017-09-03T22:04:48.416Z,63.70
2017-09-03T22:07:15.891Z,63.20
2017-09-03T22:09:43.408Z,62.90
2017-09-03T22:12:10.927Z,63.00
2017-09-03T22:14:38.418Z,63.70
2017-09-03T22:17:05.913Z,64.00
2017-09-03T22:19:33.397Z,64.10
2017-09-03T22:22:00.892Z,64.00
2017-09-03T22:24:28.392Z,64.20
2017-09-03T22:26:55.863Z,64.30
2017-09-03T22:29:23.360Z,64.50
2017-09-03T22:31:50.938Z,64.70
2017-09-03T22:34:18.482Z,64.90
2017-09-03T22:36:45.964Z,65.20
2017-09-03T22:39:13.438Z,65.40
2017-09-03T22:41:40.960Z,65.50
2017-09-03T22:44:08.441Z,66.10
2017-09-03T22:46:35.923Z,66.10
2017-09-03T22:49:03.403Z,66.00
2017-09-03T22:51:30.875Z,66.00
2017-09-03T22:53:58.370Z,66.10
2017-09-03T22:56:25.839Z,66.40
2017-09-03T22:58:53.309Z,66.60
2017-09-03T23:01:20.797Z,66.70
2017-09-03T23:03:48.275Z,66.80
2017-09-03T23:06:16.036Z,67.00
2017-09-03T23:08:43.503Z,67.50
2017-09-03T23:11:10.972Z,67.70
2017-09-03T23:13:38.500Z,67.80
2017-09-03T23:16:05.971Z,67.80
2017-09-03T23:18:33.459Z,67.90
2017-09-03T23:21:00.927Z,68.00
2017-09-03T23:23:28.391Z,68.20
2017-09-03T23:25:55.880Z,68.30
2017-09-03T23:28:23.348Z,67.90
2017-09-03T23:30:50.908Z,68.30
2017-09-03T23:33:18.380Z,68.10
2017-09-03T23:35:45.854Z,68.40
2017-09-03T23:38:13.375Z,68.40
2017-09-03T23:40:40.859Z,68.20
2017-09-03T23:43:08.357Z,69.00
2017-09-03T23:45:35.855Z,68.50
2017-09-03T23:48:03.333Z,68.60
2017-09-03T23:50:30.820Z,69.00
2017-09-03T23:52:58.287Z,69.30
2017-09-03T23:55:25.775Z,69.60
2017-09-03T23:57:53.352Z,69.60
